.
WxDataArchive / Data Records for 2010-02-18
2010-02-17 February 2010 2010-02-19

Data Records for Thursday, 18 February 2010

Time	Temp	Chill	HIndex	Humid	Dewpt	 Wind 	HiWind	WindDir	Rain 	Barom 
-----	----	-----	------	-----	-----	------	------	-------	-----	----- 
00:00	29.8	29.8	29.8	84	25.6	2	7	248	0.00	29.944 
00:05	29.8	29.8	29.8	84	25.6	2	4	270	0.00	29.944 
00:10	29.8	29.8	29.8	84	25.6	2	3	270	0.00	29.944 
00:15	30.0	30.0	30.0	84	25.8	2	5	270	0.00	29.945 
00:20	30.0	30.0	30.0	84	25.8	2	4	270	0.00	29.945 
00:25	30.0	30.0	30.0	84	25.8	2	4	270	0.00	29.945 
00:30	30.1	30.1	30.1	84	25.9	2	4	270	0.00	29.945 
00:35	30.1	30.1	30.1	84	25.9	2	4	270	0.00	29.945 
00:40	30.1	30.1	30.1	84	25.9	2	5	270	0.00	29.945 
00:45	30.3	30.3	30.3	84	26.1	2	5	270	0.00	29.946 
00:50	30.3	30.3	30.3	83	25.8	1	4	270	0.00	29.946 
00:55	30.3	30.3	30.3	83	25.8	2	4	270	0.00	29.946 
01:00	30.3	30.3	30.3	83	25.8	2	4	270	0.00	29.948 
01:05	30.4	30.4	30.4	83	25.9	2	4	270	0.00	29.948 
01:10	30.4	30.4	30.4	83	25.9	2	4	270	0.00	29.948 
01:15	30.4	30.4	30.4	82	25.6	2	4	248	0.00	29.951 
01:20	30.4	30.4	30.4	82	25.6	2	4	270	0.00	29.951 
01:25	30.6	30.6	30.6	82	25.8	2	3	270	0.00	29.951 
01:30	30.6	30.6	30.6	82	25.8	2	5	248	0.00	29.951 
01:35	30.6	30.6	30.6	82	25.8	2	5	270	0.00	29.951 
01:40	30.6	30.6	30.6	82	25.8	1	3	248	0.00	29.951 
01:45	30.6	30.6	30.6	82	25.8	1	3	248	0.00	29.953 
01:50	30.6	30.6	30.6	82	25.8	2	4	248	0.00	29.953 
01:55	30.7	30.7	30.7	82	25.9	2	4	270	0.00	29.953 
02:00	30.7	30.7	30.7	82	25.9	1	4	270	0.00	29.954 
02:05	30.7	30.7	30.7	82	25.9	1	4	270	0.00	29.954 
02:10	30.7	30.7	30.7	81	25.6	2	4	270	0.00	29.954 
02:15	30.7	30.7	30.7	81	25.6	1	4	270	0.00	29.957 
02:20	30.7	30.7	30.7	81	25.6	2	5	270	0.00	29.957 
02:25	30.9	30.9	30.9	81	25.8	2	4	270	0.00	29.957 
02:30	30.9	30.9	30.9	81	25.8	2	4	270	0.00	29.958 
02:35	30.9	30.9	30.9	81	25.8	2	4	270	0.00	29.958 
02:40	30.9	30.9	30.9	81	25.8	2	5	248	0.00	29.958 
02:45	30.9	30.9	30.9	81	25.8	2	5	248	0.00	29.959 
02:50	30.9	30.9	30.9	80	25.5	3	6	270	0.00	29.959 
02:55	30.9	30.9	30.9	80	25.5	3	5	248	0.00	29.959 
03:00	30.9	30.9	30.9	80	25.5	2	3	270	0.00	29.956 
03:05	30.9	30.9	30.9	80	25.5	3	5	292	0.00	29.956 
03:10	30.9	30.9	30.9	79	25.2	3	5	248	0.00	29.956 
03:15	30.9	30.9	30.9	79	25.2	3	7	270	0.00	29.953 
03:20	30.9	30.9	30.9	79	25.2	2	4	270	0.00	29.953 
03:25	30.9	30.9	30.9	79	25.2	2	4	270	0.00	29.953 
03:30	30.9	30.9	30.9	79	25.2	3	6	270	0.00	29.948 
03:35	30.9	30.9	30.9	79	25.2	2	5	270	0.00	29.948 
03:40	30.9	30.9	30.9	79	25.2	2	4	270	0.00	29.948 
03:45	31.0	31.0	31.0	79	25.3	2	5	315	0.00	29.952 
03:50	30.9	30.9	30.9	80	25.5	2	4	248	0.00	29.952 
03:55	30.9	30.9	30.9	80	25.5	2	3	270	0.00	29.952 
04:00	30.9	30.9	30.9	80	25.5	2	5	270	0.00	29.952 
04:05	31.0	31.0	31.0	80	25.6	2	4	270	0.00	29.952 
04:10	31.0	31.0	31.0	80	25.6	1	3	270	0.00	29.952 
04:15	31.0	31.0	31.0	80	25.6	1	3	315	0.00	29.955 
04:20	30.9	30.9	30.9	80	25.5	1	5	270	0.00	29.955 
04:25	31.0	31.0	31.0	80	25.6	2	3	270	0.00	29.955 
04:30	31.0	31.0	31.0	80	25.6	2	3	270	0.00	29.957 
04:35	31.0	31.0	31.0	80	25.6	2	5	270	0.00	29.957 
04:40	31.0	31.0	31.0	80	25.6	2	4	292	0.00	29.957 
04:45	30.9	30.9	30.9	80	25.5	2	4	270	0.00	29.958 
04:50	30.9	30.9	30.9	80	25.5	2	4	292	0.00	29.958 
04:55	30.9	30.9	30.9	80	25.5	2	4	292	0.00	29.958 
05:00	30.9	30.9	30.9	80	25.5	1	3	270	0.00	29.962 
05:05	30.9	30.9	30.9	80	25.5	1	4	248	0.00	29.962 
05:10	30.9	30.9	30.9	80	25.5	1	3	248	0.00	29.962 
05:15	30.9	30.9	30.9	80	25.5	2	4	270	0.00	29.963 
05:20	30.9	30.9	30.9	80	25.5	1	3	225	0.00	29.963 
05:25	31.0	31.0	31.0	81	25.9	2	5	270	0.00	29.963 
05:30	31.0	31.0	31.0	80	25.6	2	3	270	0.00	29.970 
05:35	31.0	31.0	31.0	81	25.9	1	3	270	0.00	29.970 
05:40	31.0	31.0	31.0	81	25.9	1	4	270	0.00	29.970 
05:45	31.0	31.0	31.0	81	25.9	1	2	270	0.00	29.976 
05:50	31.0	31.0	31.0	81	25.9	1	2	270	0.00	29.976 
05:55	31.2	31.2	31.2	81	26.1	1	3	270	0.00	29.976 
06:00	31.2	31.2	31.2	81	26.1	1	4	292	0.00	29.978 
06:05	31.2	31.2	31.2	81	26.1	1	3	248	0.00	29.978 
06:10	31.2	31.2	31.2	81	26.1	1	3	248	0.00	29.978 
06:15	31.2	31.2	31.2	81	26.1	1	2	248	0.00	29.986 
06:20	31.3	31.3	31.3	81	26.2	1	3	248	0.00	29.986 
06:25	31.3	31.3	31.3	81	26.2	1	3	248	0.00	29.986 
06:30	31.3	31.3	31.3	81	26.2	1	3	248	0.00	29.990 
06:35	31.3	31.3	31.3	81	26.2	1	2	248	0.00	29.990 
06:40	31.3	31.3	31.3	81	26.2	1	3	248	0.00	29.990 
06:45	31.3	31.3	31.3	81	26.2	2	4	248	0.00	29.993 
06:50	31.3	31.3	31.3	81	26.2	1	3	270	0.00	29.993 
06:55	31.5	31.5	31.5	81	26.4	1	3	270	0.00	29.993 
07:00	31.5	31.5	31.5	81	26.4	1	3	270	0.00	29.992 
07:05	31.5	31.5	31.5	82	26.7	1	3	248	0.00	29.992 
07:10	31.5	31.5	31.5	82	26.7	1	3	248	0.00	29.992 
07:15	31.5	31.5	31.5	82	26.7	1	2	248	0.00	29.993 
07:20	31.5	31.5	31.5	82	26.7	1	2	248	0.00	29.993 
07:25	31.5	31.5	31.5	82	26.7	2	3	248	0.00	29.993 
07:30	31.5	31.5	31.5	82	26.7	1	3	248	0.00	29.995 
07:35	31.5	31.5	31.5	82	26.7	2	4	248	0.00	29.995 
07:40	31.5	31.5	31.5	82	26.7	2	4	270	0.00	29.995 
07:45	31.5	31.5	31.5	82	26.7	2	4	270	0.00	29.997 
07:50	31.5	31.5	31.5	82	26.7	2	4	225	0.00	29.997 
07:55	31.5	31.5	31.5	82	26.7	2	4	270	0.00	29.997 
08:00	31.6	31.6	31.6	82	26.7	2	3	270	0.00	30.006 
08:05	31.6	31.6	31.6	82	26.7	1	3	248	0.00	30.006 
08:10	31.6	31.6	31.6	82	26.7	2	4	248	0.00	30.006 
08:15	31.6	31.6	31.6	82	26.7	2	4	270	0.00	30.012 
08:20	31.6	31.6	31.6	82	26.7	2	6	270	0.00	30.012 
08:25	31.6	31.6	31.6	82	26.7	2	6	248	0.00	30.012 
08:30	31.6	31.6	31.6	82	26.7	2	3	270	0.00	30.016 
08:35	31.6	31.6	31.6	82	26.7	2	4	270	0.00	30.016 
08:40	31.6	31.6	31.6	82	26.7	2	4	248	0.00	30.016 
08:45	31.6	31.6	31.6	82	26.7	2	4	248	0.00	30.014 
08:50	31.6	31.6	31.6	82	26.7	2	6	270	0.00	30.014 
08:55	31.6	31.6	31.6	82	26.7	2	4	270	0.00	30.014 
09:00	31.6	31.6	31.6	83	27.0	2	5	270	0.00	30.020 
09:05	31.8	31.8	31.8	83	27.2	2	5	270	0.00	30.020 
09:10	31.8	31.8	31.8	83	27.2	2	4	270	0.00	30.020 
09:15	31.8	31.8	31.8	83	27.2	2	4	248	0.00	30.025 
09:20	31.9	31.9	31.9	83	27.3	2	4	270	0.00	30.025 
09:25	31.9	31.9	31.9	83	27.3	3	5	270	0.00	30.025 
09:30	32.1	32.1	32.1	83	27.5	3	4	270	0.00	30.024 
09:35	32.1	32.1	32.1	84	27.8	2	4	270	0.00	30.024 
09:40	32.2	32.2	32.2	84	27.9	2	4	270	0.00	30.024 
09:45	32.2	32.2	32.2	84	27.9	3	5	270	0.00	30.030 
09:50	32.4	32.4	32.4	84	28.1	2	5	248	0.00	30.030 
09:55	32.4	32.4	32.4	85	28.4	2	6	292	0.00	30.030 
10:00	32.5	32.5	32.5	85	28.5	3	6	270	0.00	30.033 
10:05	32.5	32.5	32.5	85	28.5	3	4	270	0.00	30.033 
10:10	32.7	32.7	32.7	86	29.0	3	5	248	0.00	30.033 
10:15	32.7	32.7	32.7	86	29.0	2	4	270	0.00	30.039 
10:20	32.7	32.7	32.7	86	29.0	2	4	270	0.00	30.039 
10:25	32.8	32.8	32.8	86	29.1	1	2	248	0.00	30.039 
10:30	32.8	32.8	32.8	85	28.8	1	5	270	0.00	30.041 
10:35	32.8	32.8	32.8	85	28.8	2	4	270	0.00	30.041 
10:40	32.8	32.8	32.8	85	28.8	2	4	248	0.00	30.041 
10:45	32.8	32.8	32.8	85	28.8	2	4	248	0.00	30.041 
10:50	32.9	32.9	32.9	85	28.9	2	6	270	0.00	30.041 
10:55	32.9	32.9	32.9	85	28.9	2	5	270	0.00	30.041 
11:00	32.9	32.9	32.9	86	29.2	2	4	248	0.00	30.042 
11:05	33.1	33.1	33.1	86	29.4	2	4	248	0.00	30.042 
11:10	33.2	33.2	33.2	86	29.5	2	4	248	0.00	30.042 
11:15	33.4	33.4	33.4	86	29.7	2	4	248	0.00	30.042 
11:20	33.4	33.4	33.4	86	29.7	2	5	270	0.00	30.042 
11:25	33.5	33.5	33.5	86	29.8	1	3	270	0.00	30.042 
11:30	33.7	33.7	33.7	86	30.0	2	6	225	0.00	30.039 
11:35	33.7	33.7	33.7	85	29.7	2	7	292	0.00	30.039 
11:40	33.7	33.7	33.7	85	29.7	3	6	248	0.00	30.039 
11:45	33.5	33.5	33.5	85	29.5	2	5	270	0.00	30.040 
11:50	33.7	33.7	33.7	85	29.7	3	7	248	0.00	30.040 
11:55	33.8	33.8	33.8	85	29.8	1	3	292	0.00	30.040 
12:00	34.0	34.0	34.0	85	30.0	2	3	292	0.00	30.039 
12:05	34.1	34.1	34.1	85	30.1	2	3	292	0.00	30.039 
12:10	34.3	34.3	34.3	85	30.3	2	5	270	0.00	30.039 
12:15	34.3	34.3	34.3	84	30.0	2	3	292	0.00	30.038 
12:20	34.4	34.4	34.4	84	30.1	2	4	270	0.00	30.038 
12:25	34.6	34.6	34.6	84	30.3	2	4	248	0.00	30.038 
12:30	34.9	34.9	34.9	84	30.6	2	4	292	0.00	30.036 
12:35	34.9	34.9	34.9	83	30.3	2	5	270	0.00	30.036 
12:40	35.0	35.0	35.0	83	30.4	2	4	270	0.00	30.036 
12:45	35.2	35.2	35.2	82	30.3	2	4	270	0.00	30.027 
12:50	35.2	35.2	35.2	82	30.3	2	7	270	0.00	30.027 
12:55	35.2	35.2	35.2	82	30.3	2	9	270	0.00	30.027 
13:00	35.0	35.0	35.0	82	30.1	2	9	270	0.00	30.023 
13:05	35.3	35.3	35.3	82	30.4	2	6	270	0.00	30.023 
13:10	35.8	35.8	35.8	81	30.6	2	4	292	0.00	30.023 
13:15	36.0	36.0	36.0	80	30.4	2	5	270	0.00	30.020 
13:20	36.0	36.0	36.0	79	30.1	3	9	270	0.00	30.020 
13:25	36.0	36.0	36.0	78	29.8	3	5	270	0.00	30.020 
13:30	36.2	36.2	36.2	78	30.0	2	4	270	0.00	30.017 
13:35	36.5	36.5	36.5	77	30.0	3	5	270	0.00	30.017 
13:40	36.6	36.6	36.6	76	29.8	3	6	248	0.00	30.017 
13:45	36.6	36.6	36.6	76	29.8	2	5	270	0.00	30.011 
13:50	36.5	36.5	36.5	76	29.7	3	6	270	0.00	30.011 
13:55	36.5	36.5	36.5	75	29.3	3	5	270	0.00	30.011 
14:00	36.3	36.3	36.3	76	29.5	2	6	248	0.00	30.011 
14:05	36.5	36.5	36.5	75	29.3	3	5	248	0.00	30.011 
14:10	36.6	36.6	36.6	75	29.4	3	9	270	0.00	30.011 
14:15	36.6	36.6	36.6	75	29.4	2	6	270	0.00	30.009 
14:20	36.8	36.8	36.8	74	29.3	3	5	270	0.00	30.009 
14:25	36.9	36.9	36.9	74	29.4	3	6	270	0.00	30.009 
14:30	37.0	37.0	37.0	73	29.2	2	5	270	0.00	30.006 
14:35	37.0	33.9	37.0	71	28.5	4	9	270	0.00	30.006 
14:40	37.0	37.0	37.0	70	28.1	3	6	270	0.00	30.006 
14:45	37.0	37.0	37.0	70	28.1	3	5	270	0.00	30.001 
14:50	37.0	37.0	37.0	70	28.1	3	6	248	0.00	30.001 
14:55	37.0	37.0	37.0	69	27.8	3	10	270	0.00	30.001 
15:00	37.5	37.5	37.5	69	28.3	3	5	270	0.00	29.997 
15:05	37.6	34.5	37.6	67	27.7	4	6	270	0.00	29.997 
15:10	37.5	37.5	37.5	68	27.9	3	7	270	0.00	29.997 
15:15	37.9	37.9	37.9	66	27.6	3	7	270	0.00	29.996 
15:20	38.3	38.3	38.3	65	27.6	3	6	248	0.00	29.996 
15:25	38.9	38.9	38.9	64	27.8	2	6	248	0.00	29.996 
15:30	38.8	38.8	38.8	62	26.9	3	7	270	0.00	29.998 
15:35	38.6	38.6	38.6	63	27.1	2	5	270	0.00	29.998 
15:40	38.2	38.2	38.2	62	26.3	3	7	270	0.00	29.998 
15:45	38.2	38.2	38.2	62	26.3	3	5	270	0.00	29.999 
15:50	38.3	38.3	38.3	62	26.4	3	6	270	0.00	29.999 
15:55	38.3	38.3	38.3	62	26.4	3	6	270	0.00	29.999 
16:00	38.2	38.2	38.2	62	26.3	3	6	270	0.00	30.002 
16:05	38.2	38.2	38.2	62	26.3	3	5	270	0.00	30.002 
16:10	38.2	38.2	38.2	62	26.3	2	5	270	0.00	30.002 
16:15	37.9	37.9	37.9	62	26.1	3	6	292	0.00	30.004 
16:20	37.6	37.6	37.6	63	26.2	2	4	270	0.00	30.004 
16:25	37.5	37.5	37.5	63	26.1	3	9	270	0.00	30.004 
16:30	37.5	37.5	37.5	63	26.1	3	5	270	0.00	30.005 
16:35	37.5	37.5	37.5	63	26.1	3	6	270	0.00	30.005 
16:40	37.8	37.8	37.8	63	26.4	3	5	270	0.00	30.005 
16:45	37.6	37.6	37.6	63	26.2	3	6	270	0.00	30.006 
16:50	37.5	37.5	37.5	63	26.1	3	7	270	0.00	30.006 
16:55	37.5	34.4	37.5	62	25.7	4	7	270	0.00	30.006 
17:00	37.3	37.3	37.3	63	25.9	3	6	270	0.00	30.011 
17:05	37.3	34.2	37.3	63	25.9	4	9	270	0.00	30.011 
17:10	37.2	34.1	37.2	63	25.8	4	7	270	0.00	30.011 
17:15	37.2	37.2	37.2	63	25.8	3	6	270	0.00	30.012 
17:20	37.0	37.0	37.0	64	26.0	1	3	248	0.00	30.012 
17:25	37.0	37.0	37.0	63	25.6	3	6	292	0.00	30.012 
17:30	36.9	36.9	36.9	64	25.9	3	5	270	0.01	30.015 
17:35	36.8	36.8	36.8	64	25.8	3	5	270	0.00	30.015 
17:40	36.6	36.6	36.6	64	25.6	2	5	270	0.00	30.015 
17:45	36.5	36.5	36.5	64	25.5	2	5	270	0.00	30.018 
17:50	36.3	36.3	36.3	64	25.3	2	4	292	0.00	30.018 
17:55	36.2	36.2	36.2	65	25.6	2	5	270	0.00	30.018 
18:00	36.0	36.0	36.0	65	25.4	2	3	270	0.00	30.022 
18:05	35.9	35.9	35.9	65	25.3	2	4	270	0.00	30.022 
18:10	35.6	35.6	35.6	66	25.4	1	3	270	0.00	30.022 
18:15	35.2	35.2	35.2	69	26.1	1	3	248	0.00	30.023 
18:20	34.9	34.9	34.9	71	26.5	1	4	248	0.00	30.023 
18:25	34.4	34.4	34.4	73	26.7	1	2	248	0.00	30.023 
18:30	34.1	34.1	34.1	74	26.7	1	3	248	0.00	30.025 
18:35	33.8	33.8	33.8	75	26.7	1	4	270	0.00	30.025 
18:40	33.5	33.5	33.5	76	26.8	1	3	270	0.00	30.025 
18:45	33.4	33.4	33.4	77	27.0	1	4	270	0.00	30.036 
18:50	33.2	33.2	33.2	77	26.8	1	2	248	0.00	30.036 
18:55	32.9	32.9	32.9	77	26.5	1	2	248	0.00	30.036 
19:00	32.8	32.8	32.8	78	26.7	1	3	248	0.00	30.039 
19:05	32.7	32.7	32.7	78	26.6	0	2	248	0.00	30.039 
19:10	32.4	32.4	32.4	79	26.6	1	2	248	0.00	30.039 
19:15	32.2	32.2	32.2	79	26.4	0	2	248	0.00	30.040 
19:20	32.1	32.1	32.1	80	26.6	0	1	248	0.00	30.040 
19:25	31.9	31.9	31.9	80	26.4	0	2	248	0.00	30.040 
19:30	31.6	31.6	31.6	81	26.5	0	2	248	0.00	30.043 
19:35	31.5	31.5	31.5	81	26.4	0	4	248	0.00	30.043 
19:40	31.3	31.3	31.3	81	26.2	1	3	248	0.00	30.043 
19:45	31.2	31.2	31.2	82	26.4	0	1	248	0.00	30.047 
19:50	31.0	31.0	31.0	82	26.2	0	3	248	0.00	30.047 
19:55	30.9	30.9	30.9	82	26.1	1	4	248	0.00	30.047 
20:00	30.9	30.9	30.9	83	26.4	1	2	248	0.00	30.047 
20:05	30.7	30.7	30.7	83	26.2	0	2	248	0.00	30.047 
20:10	30.7	30.7	30.7	83	26.2	1	3	248	0.00	30.047 
20:15	30.6	30.6	30.6	83	26.1	1	2	248	0.00	30.051 
20:20	30.4	30.4	30.4	83	25.9	1	3	248	0.00	30.051 
20:25	30.4	30.4	30.4	83	25.9	1	2	248	0.00	30.051 
20:30	30.4	30.4	30.4	83	25.9	1	3	248	0.00	30.055 
20:35	30.3	30.3	30.3	83	25.8	1	2	248	0.00	30.055 
20:40	30.1	30.1	30.1	83	25.6	0	3	248	0.00	30.055 
20:45	30.1	30.1	30.1	83	25.6	0	1	248	0.00	30.057 
20:50	30.0	30.0	30.0	83	25.5	1	4	248	0.00	30.057 
20:55	30.0	30.0	30.0	83	25.5	1	3	248	0.00	30.057 
21:00	29.8	29.8	29.8	83	25.3	1	5	248	0.00	30.056 
21:05	29.8	29.8	29.8	83	25.3	0	2	225	0.00	30.056 
21:10	29.7	29.7	29.7	83	25.2	0	2	225	0.00	30.056 
21:15	29.5	29.5	29.5	83	25.0	0	1	225	0.00	30.057 
21:20	29.3	29.3	29.3	83	24.8	0	2	225	0.00	30.057 
21:25	29.1	29.1	29.1	83	24.6	0	3	225	0.00	30.057 
21:30	29.0	29.0	29.0	83	24.5	0	4	225	0.00	30.059 
21:35	29.0	29.0	29.0	83	24.5	1	3	270	0.00	30.059 
21:40	28.8	28.8	28.8	83	24.3	1	3	248	0.00	30.059 
21:45	28.7	28.7	28.7	83	24.2	0	2	248	0.00	30.066 
21:50	28.5	28.5	28.5	84	24.3	1	2	248	0.00	30.066 
21:55	28.4	28.4	28.4	84	24.2	0	1	248	0.00	30.066 
22:00	28.2	28.2	28.2	84	24.0	1	3	248	0.00	30.067 
22:05	28.2	28.2	28.2	84	24.0	1	3	248	0.00	30.067 
22:10	28.1	28.1	28.1	84	23.9	0	2	248	0.00	30.067 
22:15	28.1	28.1	28.1	84	23.9	0	2	248	0.00	30.072 
22:20	27.9	27.9	27.9	84	23.7	0	1	248	0.00	30.072 
22:25	27.9	27.9	27.9	84	23.7	0	2	248	0.00	30.072 
22:30	27.8	27.8	27.8	84	23.6	0	2	248	0.00	30.073 
22:35	27.8	27.8	27.8	84	23.6	1	2	248	0.00	30.073 
22:40	27.6	27.6	27.6	84	23.4	0	1	248	0.00	30.073 
22:45	27.5	27.5	27.5	84	23.3	0	2	248	0.00	30.075 
22:50	27.3	27.3	27.3	84	23.1	0	2	248	0.00	30.075 
22:55	27.2	27.2	27.2	84	23.0	0	1	248	0.00	30.075 
23:00	27.2	27.2	27.2	84	23.0	0	1	248	0.00	30.079 
23:05	27.0	27.0	27.0	85	23.1	0	1	248	0.00	30.079 
23:10	26.9	26.9	26.9	85	23.0	0	2	248	0.00	30.079 
23:15	26.7	26.7	26.7	85	22.8	0	2	248	0.00	30.087 
23:20	26.6	26.6	26.6	85	22.7	0	2	248	0.00	30.087 
23:25	26.6	26.6	26.6	85	22.7	0	3	248	0.00	30.087 
23:30	26.4	26.4	26.4	85	22.5	0	2	248	0.00	30.090 
23:35	26.3	26.3	26.3	85	22.4	0	1	248	0.00	30.090 
23:40	26.3	26.3	26.3	86	22.7	0	1	248	0.00	30.090 
23:45	26.1	26.1	26.1	86	22.5	0	2	248	0.00	30.091 
23:50	26.1	26.1	26.1	86	22.5	0	2	248	0.00	30.091 
23:55	26.0	26.0	26.0	86	22.4	0	2	248	0.00	30.091 

CoCoRaHS
IN-AL-39
A2 Web Hosting
Creative Commons License
GoDaddy
search engine by freefind advanced

loaded 2018-11-13 23:53:49 • last modified 2010-11-18 10:43:29
Privacy PolicyDisclaimer
• wx.awcolley.com is powered by PmWiki v.2002016 •
• all content (unless otherwise noted) © 2018 A W Colley